createdAt,value
2022-07-29T00:00:21.610Z,64.14
2022-07-29T00:03:03.910Z,64.38
2022-07-29T00:05:32.293Z,64.82
2022-07-29T00:08:00.405Z,64.97
2022-07-29T00:10:28.397Z,64.68
2022-07-29T00:12:56.418Z,64.14
2022-07-29T00:15:24.494Z,64.88
2022-07-29T00:17:52.470Z,64.70
2022-07-29T00:20:20.752Z,64.50
2022-07-29T00:22:48.660Z,64.23
2022-07-29T00:25:16.696Z,64.14
2022-07-29T00:27:44.774Z,63.73
2022-07-29T00:30:13.664Z,63.50
2022-07-29T00:32:41.843Z,63.47
2022-07-29T00:35:29.464Z,63.86
2022-07-29T00:37:57.442Z,64.49
2022-07-29T00:40:26.058Z,64.11
2022-07-29T00:42:54.244Z,64.52
2022-07-29T00:45:23.326Z,63.93
2022-07-29T00:47:51.484Z,64.01
2022-07-29T00:50:19.811Z,63.93
2022-07-29T00:52:47.967Z,63.98
2022-07-29T00:55:17.490Z,64.03
2022-07-29T00:57:46.343Z,63.65
2022-07-29T01:00:20.737Z,64.00
2022-07-29T01:02:49.396Z,64.45
2022-07-29T01:05:23.194Z,64.85
2022-07-29T01:07:54.759Z,64.82
2022-07-29T01:10:23.729Z,64.83
2022-07-29T01:12:54.040Z,64.88
2022-07-29T01:15:23.374Z,64.32
2022-07-29T01:18:29.216Z,64.01
2022-07-29T01:21:26.748Z,64.30
2022-07-29T01:23:57.637Z,64.92
2022-07-29T01:26:47.140Z,64.73
2022-07-29T01:29:50.719Z,64.69
2022-07-29T01:32:28.736Z,65.01
2022-07-29T01:35:05.294Z,64.77
2022-07-29T01:37:51.365Z,64.47
2022-07-29T01:40:25.402Z,64.54
2022-07-29T01:42:59.940Z,65.08
2022-07-29T01:45:32.799Z,65.30
2022-07-29T01:48:11.629Z,65.31
2022-07-29T01:50:49.516Z,65.45
2022-07-29T01:53:47.578Z,65.35
2022-07-29T01:56:19.037Z,65.69
2022-07-29T01:58:48.451Z,66.13
2022-07-29T02:01:18.071Z,66.16
2022-07-29T02:03:47.764Z,66.32
2022-07-29T02:06:20.338Z,66.32
2022-07-29T02:08:50.017Z,66.50
2022-07-29T02:11:18.659Z,66.64
2022-07-29T02:13:48.704Z,66.68
2022-07-29T02:16:21.214Z,66.78
2022-07-29T02:18:51.704Z,66.81
2022-07-29T02:21:25.310Z,67.02
2022-07-29T02:23:55.697Z,67.02
2022-07-29T02:26:27.049Z,66.95
2022-07-29T02:28:57.577Z,66.89
2022-07-29T02:31:30.272Z,66.86
2022-07-29T02:33:58.948Z,67.03
2022-07-29T02:36:28.358Z,67.16
2022-07-29T02:38:58.991Z,67.00
2022-07-29T02:41:34.637Z,67.29
2022-07-29T02:44:11.761Z,67.46
2022-07-29T02:46:49.230Z,67.62
2022-07-29T02:49:23.378Z,67.67
2022-07-29T02:51:58.489Z,67.64
2022-07-29T02:54:54.479Z,67.54
2022-07-29T02:57:36.140Z,67.63
2022-07-29T03:00:28.398Z,67.88
2022-07-29T03:03:00.553Z,67.85
2022-07-29T03:05:28.834Z,67.75
2022-07-29T03:07:59.876Z,67.71
2022-07-29T03:10:28.810Z,67.62
2022-07-29T03:12:59.164Z,67.88
2022-07-29T03:15:29.020Z,67.79
2022-07-29T03:17:57.807Z,67.86
2022-07-29T03:20:28.243Z,68.02
2022-07-29T03:22:56.415Z,68.09
2022-07-29T03:25:24.616Z,68.22
2022-07-29T03:27:52.673Z,68.30
2022-07-29T03:30:22.207Z,68.41
2022-07-29T03:32:52.566Z,68.62
2022-07-29T03:35:21.709Z,68.68
2022-07-29T03:37:50.106Z,68.72
2022-07-29T03:40:24.714Z,69.02
2022-07-29T03:42:55.946Z,69.17
2022-07-29T03:45:25.045Z,69.20
2022-07-29T03:48:00.571Z,69.15
2022-07-29T03:50:31.860Z,69.21
2022-07-29T03:53:01.976Z,69.42
2022-07-29T03:55:37.727Z,69.33
2022-07-29T03:58:07.784Z,69.32
2022-07-29T04:00:37.708Z,69.10
2022-07-29T04:03:10.747Z,69.18
2022-07-29T04:05:40.264Z,69.28
2022-07-29T04:08:08.338Z,69.11
2022-07-29T04:10:36.826Z,69.04
2022-07-29T04:13:04.732Z,69.06
2022-07-29T04:15:32.854Z,69.06
2022-07-29T04:18:00.912Z,68.86
2022-07-29T04:20:28.925Z,68.93
2022-07-29T04:22:56.900Z,69.00
2022-07-29T04:25:24.980Z,68.80
2022-07-29T04:28:02.152Z,68.71
2022-07-29T04:30:31.942Z,68.83
2022-07-29T04:33:01.948Z,68.72
2022-07-29T04:35:38.219Z,68.67
2022-07-29T04:38:07.470Z,68.61
2022-07-29T04:40:43.560Z,68.29
2022-07-29T04:43:12.561Z,68.38
2022-07-29T04:45:42.635Z,68.17
2022-07-29T04:48:10.706Z,67.96
2022-07-29T04:50:42.065Z,67.89
2022-07-29T04:53:09.988Z,67.59
2022-07-29T04:55:38.915Z,67.68
2022-07-29T04:58:07.411Z,67.37
2022-07-29T05:00:35.999Z,67.29
2022-07-29T05:03:05.160Z,67.20
2022-07-29T05:05:33.581Z,67.08
2022-07-29T05:08:01.556Z,66.94
2022-07-29T05:10:30.041Z,66.73
2022-07-29T05:12:58.013Z,66.37
2022-07-29T05:15:26.333Z,65.98
2022-07-29T05:17:54.368Z,65.85
2022-07-29T05:20:27.198Z,65.43
2022-07-29T05:22:57.276Z,65.70
2022-07-29T05:25:40.865Z,65.21
2022-07-29T05:28:13.277Z,65.16
2022-07-29T05:30:41.324Z,64.14
2022-07-29T05:33:09.531Z,63.87
2022-07-29T05:36:00.660Z,63.94
2022-07-29T05:38:29.742Z,64.23
2022-07-29T05:40:59.766Z,64.19
2022-07-29T05:43:31.311Z,63.98
2022-07-29T05:45:59.351Z,64.41
2022-07-29T05:48:27.872Z,63.88
2022-07-29T05:50:56.102Z,63.74
2022-07-29T05:53:24.433Z,63.75
2022-07-29T05:55:53.425Z,63.58
2022-07-29T05:58:21.607Z,63.39
2022-07-29T06:00:49.545Z,63.70
2022-07-29T06:03:17.551Z,62.65
2022-07-29T06:05:45.728Z,62.71
2022-07-29T06:08:13.646Z,62.82
2022-07-29T06:10:41.577Z,62.82
2022-07-29T06:13:09.551Z,62.07
2022-07-29T06:15:37.474Z,61.95
2022-07-29T06:18:08.771Z,62.19
2022-07-29T06:20:36.844Z,61.51
2022-07-29T06:23:05.739Z,61.44
2022-07-29T06:25:35.958Z,60.66
2022-07-29T06:28:04.631Z,60.34
2022-07-29T06:30:32.780Z,60.87
2022-07-29T06:33:02.546Z,60.49
2022-07-29T06:35:38.973Z,60.76
2022-07-29T06:38:29.954Z,60.38
2022-07-29T06:41:11.203Z,60.27
2022-07-29T06:43:51.753Z,60.23
2022-07-29T06:46:24.004Z,59.79
2022-07-29T06:48:53.045Z,59.03
2022-07-29T06:51:23.373Z,58.93
2022-07-29T06:54:00.072Z,58.92
2022-07-29T06:56:38.849Z,59.04
2022-07-29T06:59:10.019Z,58.70
2022-07-29T07:01:39.377Z,58.60
2022-07-29T07:04:09.996Z,57.80
2022-07-29T07:06:39.294Z,58.30
2022-07-29T07:09:07.603Z,57.99
2022-07-29T07:11:35.785Z,58.18
2022-07-29T07:14:04.688Z,58.25
2022-07-29T07:16:33.759Z,58.12
2022-07-29T07:19:02.068Z,57.36
2022-07-29T07:21:31.103Z,57.17
2022-07-29T07:24:00.272Z,56.92
2022-07-29T07:26:29.253Z,57.24
2022-07-29T07:28:57.159Z,57.42
2022-07-29T07:31:25.252Z,56.20
2022-07-29T07:33:54.713Z,55.81
2022-07-29T07:36:23.812Z,55.86
2022-07-29T07:38:51.811Z,55.66
2022-07-29T07:41:20.061Z,55.85
2022-07-29T07:43:48.269Z,54.46
2022-07-29T07:46:17.017Z,54.66
2022-07-29T07:48:45.470Z,54.74
2022-07-29T07:51:13.419Z,54.71
2022-07-29T07:53:41.356Z,53.42
2022-07-29T07:56:11.472Z,53.92
2022-07-29T07:58:40.632Z,54.22
2022-07-29T08:01:09.760Z,52.47
2022-07-29T08:03:38.263Z,53.00
2022-07-29T08:06:07.469Z,51.50
2022-07-29T08:08:35.542Z,51.24
2022-07-29T08:11:09.091Z,51.66
2022-07-29T08:13:39.021Z,50.05
2022-07-29T08:16:16.479Z,50.77
2022-07-29T08:18:46.560Z,51.29
2022-07-29T08:21:16.522Z,51.19
2022-07-29T08:23:55.834Z,49.04
2022-07-29T08:26:27.091Z,50.50
2022-07-29T08:28:55.075Z,50.44
2022-07-29T08:31:25.235Z,49.96
2022-07-29T08:33:53.257Z,49.34
2022-07-29T08:36:22.221Z,49.23
2022-07-29T08:38:50.801Z,49.58
2022-07-29T08:41:20.403Z,48.78
2022-07-29T08:43:50.445Z,48.51
2022-07-29T08:46:18.800Z,48.31
2022-07-29T08:48:48.236Z,47.04
2022-07-29T08:51:20.100Z,46.42
2022-07-29T08:53:50.023Z,45.89
2022-07-29T08:56:19.529Z,46.21
2022-07-29T08:58:51.630Z,46.19
2022-07-29T09:01:36.137Z,46.91
2022-07-29T09:04:13.032Z,47.14
2022-07-29T09:06:45.607Z,46.68
2022-07-29T09:09:15.568Z,46.60
2022-07-29T09:11:44.585Z,45.47
2022-07-29T09:14:14.674Z,45.18
2022-07-29T09:16:57.639Z,45.76
2022-07-29T09:19:31.163Z,44.32
2022-07-29T09:22:04.192Z,43.10
2022-07-29T09:24:40.838Z,42.37
2022-07-29T09:27:23.620Z,42.17
2022-07-29T09:30:02.345Z,41.61
2022-07-29T09:32:32.472Z,43.31
2022-07-29T09:35:31.516Z,42.13
2022-07-29T09:38:14.367Z,43.19
2022-07-29T09:40:42.439Z,42.70
2022-07-29T09:43:14.509Z,40.23
2022-07-29T09:45:42.507Z,37.55
2022-07-29T09:48:26.008Z,35.32
2022-07-29T09:50:55.108Z,33.99
2022-07-29T09:53:41.196Z,33.96
2022-07-29T09:56:09.578Z,34.85
2022-07-29T09:58:37.756Z,34.00
2022-07-29T10:01:05.876Z,32.18
2022-07-29T10:03:51.170Z,34.17
2022-07-29T10:06:19.278Z,35.47
2022-07-29T10:08:48.006Z,36.37
2022-07-29T10:11:17.702Z,36.89
2022-07-29T10:13:48.446Z,37.86
2022-07-29T10:16:18.007Z,37.28
2022-07-29T10:18:47.923Z,38.10
2022-07-29T10:21:34.546Z,37.13
2022-07-29T10:24:06.044Z,37.93
2022-07-29T10:26:34.274Z,38.01
2022-07-29T10:29:02.280Z,38.27
2022-07-29T10:31:43.331Z,36.85
2022-07-29T10:34:26.951Z,37.00
2022-07-29T10:37:36.009Z,36.49
2022-07-29T10:40:47.989Z,35.47
2022-07-29T10:43:24.095Z,35.55
2022-07-29T10:45:59.392Z,36.09
2022-07-29T10:48:28.023Z,34.40
2022-07-29T10:51:06.868Z,33.61
2022-07-29T10:53:49.147Z,31.36
2022-07-29T10:56:32.059Z,31.26
2022-07-29T10:59:19.012Z,32.60
2022-07-29T11:01:53.527Z,33.10
2022-07-29T11:04:44.281Z,32.91
2022-07-29T11:07:15.146Z,34.20
2022-07-29T11:09:43.869Z,33.95
2022-07-29T11:12:39.406Z,35.06
2022-07-29T11:15:09.743Z,34.64
2022-07-29T11:17:59.686Z,34.28
2022-07-29T11:20:41.626Z,36.36
2022-07-29T11:23:33.925Z,36.13
2022-07-29T11:26:18.655Z,37.17
2022-07-29T11:29:04.335Z,37.43
2022-07-29T11:31:38.166Z,36.91
2022-07-29T11:34:27.988Z,37.97
2022-07-29T11:37:13.909Z,38.18
2022-07-29T11:39:47.530Z,36.92
2022-07-29T11:42:18.264Z,37.75
2022-07-29T11:45:08.829Z,37.64
2022-07-29T11:47:55.565Z,38.15
2022-07-29T11:50:37.650Z,37.59
2022-07-29T11:53:13.897Z,38.40
2022-07-29T11:55:50.939Z,38.33
2022-07-29T11:58:26.554Z,38.22
2022-07-29T12:00:56.321Z,38.21
2022-07-29T12:03:33.475Z,37.46
2022-07-29T12:06:15.106Z,37.57
2022-07-29T12:08:45.029Z,36.89
2022-07-29T12:11:20.735Z,38.29
2022-07-29T12:13:53.581Z,38.24
2022-07-29T12:16:29.216Z,38.39
2022-07-29T12:19:02.897Z,38.17
2022-07-29T12:21:52.310Z,38.63
2022-07-29T12:24:26.950Z,39.19
2022-07-29T12:26:56.767Z,38.96
2022-07-29T12:29:33.907Z,37.80
2022-07-29T12:32:14.558Z,38.44
2022-07-29T12:34:43.059Z,38.58
2022-07-29T12:37:11.441Z,38.66
2022-07-29T12:39:40.132Z,38.98
2022-07-29T12:42:14.891Z,39.38
2022-07-29T12:44:50.916Z,38.97
2022-07-29T12:47:20.944Z,38.36
2022-07-29T12:49:50.453Z,38.88
2022-07-29T12:52:35.911Z,39.03
2022-07-29T12:55:04.860Z,39.32
2022-07-29T12:57:33.425Z,39.16
2022-07-29T13:00:12.110Z,39.63
2022-07-29T13:02:42.504Z,40.38
2022-07-29T13:05:12.494Z,39.58
2022-07-29T13:07:55.674Z,39.34
2022-07-29T13:10:26.342Z,38.29
2022-07-29T13:13:11.492Z,39.68
2022-07-29T13:15:41.751Z,39.43
2022-07-29T13:18:33.736Z,39.82
2022-07-29T13:21:13.478Z,38.98
2022-07-29T13:23:41.548Z,39.23
2022-07-29T13:26:11.100Z,39.08
2022-07-29T13:28:39.443Z,39.61
2022-07-29T13:31:07.450Z,39.96
2022-07-29T13:33:35.489Z,40.54
2022-07-29T13:36:03.403Z,39.72
2022-07-29T13:38:31.470Z,40.48
2022-07-29T13:40:59.822Z,40.05
2022-07-29T13:43:27.798Z,40.49
2022-07-29T13:45:55.954Z,40.24
2022-07-29T13:48:24.045Z,40.31
2022-07-29T13:50:51.885Z,40.17
2022-07-29T13:53:19.994Z,39.62
2022-07-29T13:55:56.051Z,39.75
2022-07-29T13:58:24.535Z,39.96
2022-07-29T14:00:52.696Z,40.33
2022-07-29T14:03:20.790Z,39.67
2022-07-29T14:05:48.768Z,39.59
2022-07-29T14:08:16.643Z,39.14
2022-07-29T14:10:44.527Z,39.65
2022-07-29T14:13:24.304Z,39.36
2022-07-29T14:15:52.953Z,40.18
2022-07-29T14:18:20.814Z,39.34
2022-07-29T14:20:48.739Z,39.30
2022-07-29T14:23:16.653Z,40.49
2022-07-29T14:25:44.641Z,40.52
2022-07-29T14:28:14.747Z,40.10
2022-07-29T14:30:44.539Z,40.60
2022-07-29T14:33:12.639Z,39.48
2022-07-29T14:35:40.747Z,40.55
2022-07-29T14:38:08.651Z,40.52
2022-07-29T14:40:37.477Z,39.66
2022-07-29T14:43:05.641Z,40.06
2022-07-29T14:45:33.556Z,40.02
2022-07-29T14:48:01.647Z,39.55
2022-07-29T14:50:31.900Z,39.35
2022-07-29T14:53:03.802Z,39.75
2022-07-29T14:55:31.797Z,38.76
2022-07-29T14:58:08.741Z,38.55
2022-07-29T15:00:38.771Z,38.36
2022-07-29T15:03:07.071Z,38.20
2022-07-29T15:05:40.055Z,38.24
2022-07-29T15:08:09.264Z,38.66
2022-07-29T15:10:37.411Z,38.44
2022-07-29T15:13:05.462Z,38.54
2022-07-29T15:15:33.397Z,38.54
2022-07-29T15:18:01.251Z,38.84
2022-07-29T15:20:29.237Z,38.60
2022-07-29T15:22:57.360Z,38.56
2022-07-29T15:25:28.263Z,38.51
2022-07-29T15:28:01.303Z,37.87
2022-07-29T15:30:33.326Z,38.27
2022-07-29T15:33:04.143Z,38.61
2022-07-29T15:35:32.536Z,37.76
2022-07-29T15:38:00.403Z,37.61
2022-07-29T15:40:29.180Z,38.50
2022-07-29T15:42:57.251Z,38.63
2022-07-29T15:45:25.349Z,38.58
2022-07-29T15:47:53.271Z,38.63
2022-07-29T15:50:21.291Z,38.75
2022-07-29T15:52:49.184Z,38.96
2022-07-29T15:55:17.156Z,39.09
2022-07-29T15:57:45.036Z,39.37
2022-07-29T16:00:13.903Z,39.75
2022-07-29T16:02:41.780Z,39.84
2022-07-29T16:05:10.230Z,39.56
2022-07-29T16:07:38.137Z,39.81
2022-07-29T16:10:08.034Z,39.46
2022-07-29T16:12:35.954Z,39.09
2022-07-29T16:15:09.504Z,39.19
2022-07-29T16:17:39.073Z,38.63
2022-07-29T16:20:07.710Z,39.42
2022-07-29T16:22:35.558Z,39.63
2022-07-29T16:25:03.722Z,39.75
2022-07-29T16:27:37.946Z,39.87
2022-07-29T16:30:10.608Z,39.89
2022-07-29T16:32:38.529Z,40.23
2022-07-29T16:35:07.597Z,39.80
2022-07-29T16:37:37.217Z,39.13
2022-07-29T16:40:06.896Z,38.79
2022-07-29T16:42:46.451Z,39.42
2022-07-29T16:45:16.314Z,39.59
2022-07-29T16:47:45.839Z,38.96
2022-07-29T16:50:13.722Z,39.66
2022-07-29T16:52:41.626Z,39.39
2022-07-29T16:55:09.617Z,39.67
2022-07-29T16:57:37.508Z,39.08
2022-07-29T17:00:06.900Z,39.01
2022-07-29T17:02:34.790Z,38.54
2022-07-29T17:05:02.877Z,39.02
2022-07-29T17:07:30.848Z,38.88
2022-07-29T17:10:03.419Z,38.52
2022-07-29T17:12:32.507Z,38.73
2022-07-29T17:15:00.784Z,39.22
2022-07-29T17:17:38.668Z,38.59
2022-07-29T17:20:09.710Z,38.46
2022-07-29T17:22:38.605Z,38.42
2022-07-29T17:25:08.231Z,39.08
2022-07-29T17:27:37.126Z,39.25
2022-07-29T17:30:06.493Z,38.75
2022-07-29T17:32:38.519Z,39.23
2022-07-29T17:35:26.135Z,38.63
2022-07-29T17:37:54.038Z,38.71
2022-07-29T17:40:23.127Z,38.82
2022-07-29T17:42:51.058Z,39.09
2022-07-29T17:45:19.199Z,38.97
2022-07-29T17:47:47.105Z,38.46
2022-07-29T17:50:14.998Z,38.83
2022-07-29T17:52:43.058Z,38.03
2022-07-29T17:55:13.344Z,38.39
2022-07-29T17:57:41.231Z,38.66
2022-07-29T18:00:09.865Z,38.26
2022-07-29T18:02:37.937Z,38.87
2022-07-29T18:05:06.282Z,38.89
2022-07-29T18:07:34.257Z,39.10
2022-07-29T18:10:02.132Z,39.40
2022-07-29T18:12:30.069Z,39.94
2022-07-29T18:14:58.006Z,40.21
2022-07-29T18:17:35.065Z,40.47
2022-07-29T18:20:13.760Z,40.50
2022-07-29T18:22:41.707Z,40.66
2022-07-29T18:25:10.250Z,40.83
2022-07-29T18:27:38.397Z,41.20
2022-07-29T18:30:07.300Z,41.26
2022-07-29T18:32:35.274Z,41.13
2022-07-29T18:35:05.390Z,41.16
2022-07-29T18:38:02.067Z,41.44
2022-07-29T18:40:25.451Z,41.70
2022-07-29T18:42:53.489Z,41.85
2022-07-29T18:45:21.397Z,41.94
2022-07-29T18:47:49.721Z,42.04
2022-07-29T18:50:19.728Z,42.01
2022-07-29T18:52:47.688Z,42.50
2022-07-29T18:55:15.642Z,42.39
2022-07-29T18:57:53.663Z,42.64
2022-07-29T19:00:25.029Z,42.95
2022-07-29T19:02:53.294Z,43.12
2022-07-29T19:05:21.874Z,42.63
2022-07-29T19:07:49.756Z,42.77
2022-07-29T19:10:17.838Z,42.65
2022-07-29T19:12:45.806Z,42.85
2022-07-29T19:15:20.472Z,42.92
2022-07-29T19:17:48.997Z,43.03
2022-07-29T19:20:17.059Z,42.90
2022-07-29T19:22:44.930Z,43.23
2022-07-29T19:25:13.007Z,43.05
2022-07-29T19:27:43.027Z,43.06
2022-07-29T19:30:11.431Z,43.19
2022-07-29T19:32:39.393Z,43.19
2022-07-29T19:35:31.363Z,43.50
2022-07-29T19:38:01.549Z,43.45
2022-07-29T19:40:30.231Z,43.18
2022-07-29T19:42:58.175Z,43.63
2022-07-29T19:45:26.462Z,43.59
2022-07-29T19:48:00.793Z,43.70
2022-07-29T19:50:29.967Z,43.47
2022-07-29T19:52:58.525Z,43.61
2022-07-29T19:55:27.405Z,43.47
2022-07-29T19:57:55.752Z,43.55
2022-07-29T20:00:24.365Z,43.77
2022-07-29T20:02:52.665Z,43.80
2022-07-29T20:05:20.646Z,43.31
2022-07-29T20:07:48.629Z,43.50
2022-07-29T20:10:16.753Z,43.33
2022-07-29T20:12:44.683Z,43.57
2022-07-29T20:15:16.438Z,43.67
2022-07-29T20:17:44.886Z,43.95
2022-07-29T20:20:12.828Z,43.96
2022-07-29T20:22:40.765Z,44.28
2022-07-29T20:25:12.094Z,44.61
2022-07-29T20:27:40.785Z,44.25
2022-07-29T20:30:09.465Z,43.98
2022-07-29T20:32:40.821Z,44.28
2022-07-29T20:35:10.152Z,44.16
2022-07-29T20:37:52.437Z,44.15
2022-07-29T20:40:25.937Z,44.46
2022-07-29T20:42:55.095Z,44.46
2022-07-29T20:45:23.767Z,44.59
2022-07-29T20:47:52.220Z,44.53
2022-07-29T20:50:23.748Z,44.76
2022-07-29T20:52:52.925Z,44.66
2022-07-29T20:55:21.349Z,44.69
2022-07-29T20:57:49.335Z,44.86
2022-07-29T21:00:17.333Z,45.03
2022-07-29T21:02:45.214Z,45.06
2022-07-29T21:05:13.140Z,45.07
2022-07-29T21:07:41.054Z,45.00
2022-07-29T21:10:09.037Z,45.04
2022-07-29T21:12:37.028Z,45.32
2022-07-29T21:15:06.689Z,45.21
2022-07-29T21:17:40.751Z,45.59
2022-07-29T21:20:09.079Z,45.43
2022-07-29T21:22:36.952Z,45.49
2022-07-29T21:25:05.819Z,45.40
2022-07-29T21:27:52.693Z,45.74
2022-07-29T21:30:21.333Z,45.61
2022-07-29T21:32:49.527Z,45.67
2022-07-29T21:35:35.883Z,45.74
2022-07-29T21:38:05.350Z,45.88
2022-07-29T21:40:33.215Z,46.41
2022-07-29T21:43:01.272Z,46.21
2022-07-29T21:45:29.245Z,46.07
2022-07-29T21:47:57.090Z,46.27
2022-07-29T21:50:25.070Z,46.60
2022-07-29T21:52:52.899Z,46.59
2022-07-29T21:55:21.259Z,46.53
2022-07-29T21:57:54.416Z,47.21
2022-07-29T22:00:25.616Z,46.73
2022-07-29T22:02:53.641Z,47.22
2022-07-29T22:05:21.992Z,47.00
2022-07-29T22:07:54.462Z,46.72
2022-07-29T22:10:25.837Z,47.33
2022-07-29T22:12:55.566Z,47.44
2022-07-29T22:15:24.571Z,47.36
2022-07-29T22:17:53.233Z,47.35
2022-07-29T22:20:21.370Z,47.44
2022-07-29T22:22:49.330Z,47.64
2022-07-29T22:25:17.898Z,48.08
2022-07-29T22:27:45.978Z,47.91
2022-07-29T22:30:14.800Z,48.07
2022-07-29T22:32:42.750Z,47.91
2022-07-29T22:35:11.047Z,48.16
2022-07-29T22:37:39.309Z,48.36
2022-07-29T22:40:07.690Z,47.90
2022-07-29T22:42:35.918Z,48.07
2022-07-29T22:45:10.566Z,48.35
2022-07-29T22:47:47.881Z,47.73
2022-07-29T22:50:17.271Z,47.75
2022-07-29T22:52:46.099Z,47.80
2022-07-29T22:55:14.807Z,47.66
2022-07-29T22:57:43.268Z,47.40
2022-07-29T23:00:12.859Z,47.49
2022-07-29T23:02:41.633Z,47.70
2022-07-29T23:05:10.718Z,47.22
2022-07-29T23:07:38.712Z,47.38
2022-07-29T23:10:06.919Z,47.41
2022-07-29T23:12:35.005Z,47.05
2022-07-29T23:15:04.531Z,47.38
2022-07-29T23:17:36.061Z,46.91
2022-07-29T23:20:07.896Z,47.24
2022-07-29T23:22:36.235Z,47.31
2022-07-29T23:25:05.275Z,47.15
2022-07-29T23:27:33.251Z,46.72
2022-07-29T23:30:01.186Z,46.91
2022-07-29T23:32:29.095Z,46.82
2022-07-29T23:34:56.991Z,47.02
2022-07-29T23:37:26.609Z,46.72
2022-07-29T23:39:54.953Z,47.22
2022-07-29T23:42:23.197Z,47.06
2022-07-29T23:44:51.298Z,46.89
2022-07-29T23:47:19.123Z,47.31
2022-07-29T23:49:49.914Z,47.43
2022-07-29T23:52:18.258Z,47.10
2022-07-29T23:54:46.271Z,47.25
2022-07-29T23:57:14.245Z,47.46
2022-07-29T23:59:42.250Z,47.72
